sensor_id;sensor_type;location;lat;lon;timestamp;P1;durP1;ratioP1;P2;durP2;ratioP2
56045;SDS011;41913;51.030;3.706;2023-02-18T00:00:11;0.90;;;0.90;;
56045;SDS011;41913;51.030;3.706;2023-02-18T00:02:39;0.73;;;0.73;;
56045;SDS011;41913;51.030;3.706;2023-02-18T00:05:05;1.00;;;1.00;;
56045;SDS011;41913;51.030;3.706;2023-02-18T00:07:34;0.65;;;0.65;;
56045;SDS011;41913;51.030;3.706;2023-02-18T00:10:02;0.93;;;0.93;;
56045;SDS011;41913;51.030;3.706;2023-02-18T00:12:29;0.70;;;0.70;;
56045;SDS011;41913;51.030;3.706;2023-02-18T00:14:55;0.50;;;0.50;;
56045;SDS011;41913;51.030;3.706;2023-02-18T00:17:21;0.80;;;0.80;;
56045;SDS011;41913;51.030;3.706;2023-02-18T00:19:47;0.75;;;0.75;;
56045;SDS011;41913;51.030;3.706;2023-02-18T00:22:13;0.70;;;0.70;;
56045;SDS011;41913;51.030;3.706;2023-02-18T00:24:38;0.60;;;0.60;;
56045;SDS011;41913;51.030;3.706;2023-02-18T00:27:04;0.70;;;0.70;;
56045;SDS011;41913;51.030;3.706;2023-02-18T00:29:30;0.70;;;0.70;;
56045;SDS011;41913;51.030;3.706;2023-02-18T00:31:56;0.70;;;0.70;;
56045;SDS011;41913;51.030;3.706;2023-02-18T00:34:22;0.65;;;0.65;;
56045;SDS011;41913;51.030;3.706;2023-02-18T00:36:49;0.90;;;0.85;;
56045;SDS011;41913;51.030;3.706;2023-02-18T00:39:15;0.57;;;0.57;;
56045;SDS011;41913;51.030;3.706;2023-02-18T00:41:40;2.80;;;0.80;;
56045;SDS011;41913;51.030;3.706;2023-02-18T00:44:06;0.70;;;0.70;;
56045;SDS011;41913;51.030;3.706;2023-02-18T00:46:32;0.45;;;0.45;;
56045;SDS011;41913;51.030;3.706;2023-02-18T00:48:59;0.60;;;0.60;;
56045;SDS011;41913;51.030;3.706;2023-02-18T00:51:25;0.55;;;0.55;;
56045;SDS011;41913;51.030;3.706;2023-02-18T00:53:52;0.60;;;0.60;;
56045;SDS011;41913;51.030;3.706;2023-02-18T00:56:18;0.50;;;0.50;;
56045;SDS011;41913;51.030;3.706;2023-02-18T00:58:43;2.10;;;0.60;;
56045;SDS011;41913;51.030;3.706;2023-02-18T01:01:10;0.60;;;0.60;;
56045;SDS011;41913;51.030;3.706;2023-02-18T01:03:37;0.52;;;0.52;;
56045;SDS011;41913;51.030;3.706;2023-02-18T01:06:04;0.50;;;0.50;;
56045;SDS011;41913;51.030;3.706;2023-02-18T01:08:32;0.45;;;0.45;;
56045;SDS011;41913;51.030;3.706;2023-02-18T01:10:58;0.40;;;0.40;;
56045;SDS011;41913;51.030;3.706;2023-02-18T01:13:25;0.50;;;0.50;;
56045;SDS011;41913;51.030;3.706;2023-02-18T01:15:51;0.68;;;0.63;;
56045;SDS011;41913;51.030;3.706;2023-02-18T01:18:17;0.77;;;0.77;;
56045;SDS011;41913;51.030;3.706;2023-02-18T01:20:44;0.70;;;0.70;;
56045;SDS011;41913;51.030;3.706;2023-02-18T01:23:11;0.85;;;0.60;;
56045;SDS011;41913;51.030;3.706;2023-02-18T01:25:37;0.60;;;0.55;;
56045;SDS011;41913;51.030;3.706;2023-02-18T01:28:04;0.68;;;0.68;;
56045;SDS011;41913;51.030;3.706;2023-02-18T01:30:30;0.70;;;0.70;;
56045;SDS011;41913;51.030;3.706;2023-02-18T01:32:56;0.70;;;0.70;;
56045;SDS011;41913;51.030;3.706;2023-02-18T01:35:22;0.50;;;0.50;;
56045;SDS011;41913;51.030;3.706;2023-02-18T01:37:49;0.47;;;0.47;;
56045;SDS011;41913;51.030;3.706;2023-02-18T01:40:16;0.60;;;0.60;;
56045;SDS011;41913;51.030;3.706;2023-02-18T01:42:44;2.03;;;0.70;;
56045;SDS011;41913;51.030;3.706;2023-02-18T01:47:58;0.40;;;0.40;;
56045;SDS011;41913;51.030;3.706;2023-02-18T01:50:30;0.73;;;0.65;;
56045;SDS011;41913;51.030;3.706;2023-02-18T01:53:00;0.60;;;0.60;;
56045;SDS011;41913;51.030;3.706;2023-02-18T01:55:27;0.50;;;0.50;;
56045;SDS011;41913;51.030;3.706;2023-02-18T01:57:53;0.50;;;0.50;;
56045;SDS011;41913;51.030;3.706;2023-02-18T02:00:21;0.57;;;0.57;;
56045;SDS011;41913;51.030;3.706;2023-02-18T02:02:53;0.60;;;0.60;;
56045;SDS011;41913;51.030;3.706;2023-02-18T02:05:20;0.52;;;0.52;;
56045;SDS011;41913;51.030;3.706;2023-02-18T02:07:46;0.57;;;0.57;;
56045;SDS011;41913;51.030;3.706;2023-02-18T02:10:16;0.50;;;0.50;;
56045;SDS011;41913;51.030;3.706;2023-02-18T02:18:02;0.70;;;0.70;;
56045;SDS011;41913;51.030;3.706;2023-02-18T02:35:04;0.63;;;0.63;;
56045;SDS011;41913;51.030;3.706;2023-02-18T02:37:51;0.50;;;0.50;;
56045;SDS011;41913;51.030;3.706;2023-02-18T02:40:24;0.50;;;0.50;;
56045;SDS011;41913;51.030;3.706;2023-02-18T02:44:05;0.50;;;0.50;;
56045;SDS011;41913;51.030;3.706;2023-02-18T02:48:50;0.40;;;0.40;;
56045;SDS011;41913;51.030;3.706;2023-02-18T02:51:24;0.45;;;0.45;;
56045;SDS011;41913;51.030;3.706;2023-02-18T02:54:19;0.30;;;0.30;;
56045;SDS011;41913;51.030;3.706;2023-02-18T02:56:49;0.50;;;0.50;;
56045;SDS011;41913;51.030;3.706;2023-02-18T02:59:29;0.50;;;0.50;;
56045;SDS011;41913;51.030;3.706;2023-02-18T03:02:08;0.60;;;0.57;;
56045;SDS011;41913;51.030;3.706;2023-02-18T03:05:14;0.30;;;0.30;;
56045;SDS011;41913;51.030;3.706;2023-02-18T03:10:45;0.60;;;0.60;;
56045;SDS011;41913;51.030;3.706;2023-02-18T03:13:17;0.32;;;0.32;;
56045;SDS011;41913;51.030;3.706;2023-02-18T03:16:11;0.50;;;0.50;;
56045;SDS011;41913;51.030;3.706;2023-02-18T03:21:27;0.35;;;0.35;;
56045;SDS011;41913;51.030;3.706;2023-02-18T03:24:02;0.30;;;0.30;;
56045;SDS011;41913;51.030;3.706;2023-02-18T03:26:40;0.40;;;0.40;;
56045;SDS011;41913;51.030;3.706;2023-02-18T03:29:10;0.30;;;0.30;;
56045;SDS011;41913;51.030;3.706;2023-02-18T03:31:39;0.22;;;0.22;;
56045;SDS011;41913;51.030;3.706;2023-02-18T03:34:10;0.32;;;0.30;;
56045;SDS011;41913;51.030;3.706;2023-02-18T03:36:44;0.55;;;0.32;;
56045;SDS011;41913;51.030;3.706;2023-02-18T03:39:13;0.30;;;0.30;;
56045;SDS011;41913;51.030;3.706;2023-02-18T03:41:42;0.30;;;0.30;;
56045;SDS011;41913;51.030;3.706;2023-02-18T03:44:09;0.20;;;0.20;;
56045;SDS011;41913;51.030;3.706;2023-02-18T03:46:37;0.20;;;0.20;;
56045;SDS011;41913;51.030;3.706;2023-02-18T03:49:06;0.25;;;0.25;;
56045;SDS011;41913;51.030;3.706;2023-02-18T03:51:32;0.20;;;0.20;;
56045;SDS011;41913;51.030;3.706;2023-02-18T03:53:59;0.40;;;0.40;;
56045;SDS011;41913;51.030;3.706;2023-02-18T03:56:26;0.40;;;0.40;;
56045;SDS011;41913;51.030;3.706;2023-02-18T03:58:52;0.20;;;0.20;;
56045;SDS011;41913;51.030;3.706;2023-02-18T04:01:20;0.40;;;0.40;;
56045;SDS011;41913;51.030;3.706;2023-02-18T04:03:48;0.30;;;0.30;;
56045;SDS011;41913;51.030;3.706;2023-02-18T04:06:14;0.30;;;0.30;;
56045;SDS011;41913;51.030;3.706;2023-02-18T04:08:40;0.30;;;0.30;;
56045;SDS011;41913;51.030;3.706;2023-02-18T04:11:07;0.38;;;0.38;;
56045;SDS011;41913;51.030;3.706;2023-02-18T04:13:34;0.30;;;0.30;;
56045;SDS011;41913;51.030;3.706;2023-02-18T04:16:00;0.30;;;0.30;;
56045;SDS011;41913;51.030;3.706;2023-02-18T04:18:27;0.30;;;0.30;;
56045;SDS011;41913;51.030;3.706;2023-02-18T04:20:53;0.20;;;0.20;;
56045;SDS011;41913;51.030;3.706;2023-02-18T04:23:19;0.40;;;0.40;;
56045;SDS011;41913;51.030;3.706;2023-02-18T04:25:45;0.20;;;0.20;;
56045;SDS011;41913;51.030;3.706;2023-02-18T04:28:12;0.35;;;0.35;;
56045;SDS011;41913;51.030;3.706;2023-02-18T04:30:40;0.30;;;0.30;;
56045;SDS011;41913;51.030;3.706;2023-02-18T04:33:11;0.32;;;0.32;;
56045;SDS011;41913;51.030;3.706;2023-02-18T04:35:39;0.40;;;0.40;;
56045;SDS011;41913;51.030;3.706;2023-02-18T04:38:06;0.40;;;0.40;;
56045;SDS011;41913;51.030;3.706;2023-02-18T04:40:32;0.30;;;0.30;;
56045;SDS011;41913;51.030;3.706;2023-02-18T04:42:59;0.15;;;0.15;;
56045;SDS011;41913;51.030;3.706;2023-02-18T04:45:25;0.25;;;0.25;;
56045;SDS011;41913;51.030;3.706;2023-02-18T04:47:51;0.30;;;0.30;;
56045;SDS011;41913;51.030;3.706;2023-02-18T04:50:18;0.20;;;0.20;;
56045;SDS011;41913;51.030;3.706;2023-02-18T04:52:45;0.30;;;0.30;;
56045;SDS011;41913;51.030;3.706;2023-02-18T04:55:12;0.30;;;0.30;;
56045;SDS011;41913;51.030;3.706;2023-02-18T04:57:39;0.20;;;0.20;;
56045;SDS011;41913;51.030;3.706;2023-02-18T05:00:05;0.25;;;0.25;;
56045;SDS011;41913;51.030;3.706;2023-02-18T05:02:32;0.10;;;0.10;;
56045;SDS011;41913;51.030;3.706;2023-02-18T05:04:58;0.20;;;0.20;;
56045;SDS011;41913;51.030;3.706;2023-02-18T05:07:25;0.10;;;0.10;;
56045;SDS011;41913;51.030;3.706;2023-02-18T05:09:51;0.30;;;0.30;;
56045;SDS011;41913;51.030;3.706;2023-02-18T05:12:18;0.40;;;0.40;;
56045;SDS011;41913;51.030;3.706;2023-02-18T05:14:44;0.40;;;0.40;;
56045;SDS011;41913;51.030;3.706;2023-02-18T05:17:16;0.10;;;0.10;;
56045;SDS011;41913;51.030;3.706;2023-02-18T05:19:43;0.20;;;0.20;;
56045;SDS011;41913;51.030;3.706;2023-02-18T05:22:08;0.30;;;0.30;;
56045;SDS011;41913;51.030;3.706;2023-02-18T05:24:36;0.13;;;0.13;;
56045;SDS011;41913;51.030;3.706;2023-02-18T05:27:02;0.30;;;0.20;;
56045;SDS011;41913;51.030;3.706;2023-02-18T05:29:28;0.20;;;0.20;;
56045;SDS011;41913;51.030;3.706;2023-02-18T05:31:55;0.22;;;0.22;;
56045;SDS011;41913;51.030;3.706;2023-02-18T05:34:22;0.32;;;0.32;;
56045;SDS011;41913;51.030;3.706;2023-02-18T05:36:47;0.20;;;0.20;;
56045;SDS011;41913;51.030;3.706;2023-02-18T05:39:13;0.25;;;0.22;;
56045;SDS011;41913;51.030;3.706;2023-02-18T05:41:40;1.02;;;0.40;;
56045;SDS011;41913;51.030;3.706;2023-02-18T05:44:06;0.40;;;0.40;;
56045;SDS011;41913;51.030;3.706;2023-02-18T05:46:51;0.50;;;0.40;;
56045;SDS011;41913;51.030;3.706;2023-02-18T05:49:18;0.20;;;0.20;;
56045;SDS011;41913;51.030;3.706;2023-02-18T05:51:45;0.30;;;0.30;;
56045;SDS011;41913;51.030;3.706;2023-02-18T05:54:11;1.75;;;0.30;;
56045;SDS011;41913;51.030;3.706;2023-02-18T05:59:07;0.40;;;0.40;;
56045;SDS011;41913;51.030;3.706;2023-02-18T06:01:32;0.57;;;0.40;;
56045;SDS011;41913;51.030;3.706;2023-02-18T06:04:00;0.30;;;0.30;;
56045;SDS011;41913;51.030;3.706;2023-02-18T06:06:27;0.20;;;0.20;;
56045;SDS011;41913;51.030;3.706;2023-02-18T06:08:53;0.40;;;0.40;;
56045;SDS011;41913;51.030;3.706;2023-02-18T06:11:19;0.40;;;0.40;;
56045;SDS011;41913;51.030;3.706;2023-02-18T06:13:45;0.43;;;0.43;;
56045;SDS011;41913;51.030;3.706;2023-02-18T06:16:10;0.30;;;0.30;;
56045;SDS011;41913;51.030;3.706;2023-02-18T06:18:36;0.30;;;0.30;;
56045;SDS011;41913;51.030;3.706;2023-02-18T06:21:02;0.40;;;0.40;;
56045;SDS011;41913;51.030;3.706;2023-02-18T06:23:28;2.28;;;0.50;;
56045;SDS011;41913;51.030;3.706;2023-02-18T06:25:53;3.00;;;0.95;;
56045;SDS011;41913;51.030;3.706;2023-02-18T06:28:19;2.45;;;0.60;;
56045;SDS011;41913;51.030;3.706;2023-02-18T06:30:45;1.02;;;0.65;;
56045;SDS011;41913;51.030;3.706;2023-02-18T06:33:12;0.80;;;0.57;;
56045;SDS011;41913;51.030;3.706;2023-02-18T06:35:38;1.75;;;0.55;;
56045;SDS011;41913;51.030;3.706;2023-02-18T06:38:04;0.90;;;0.70;;
56045;SDS011;41913;51.030;3.706;2023-02-18T06:40:29;2.78;;;0.93;;
56045;SDS011;41913;51.030;3.706;2023-02-18T06:42:55;1.88;;;0.80;;
56045;SDS011;41913;51.030;3.706;2023-02-18T06:45:21;0.90;;;0.90;;
56045;SDS011;41913;51.030;3.706;2023-02-18T06:47:46;0.60;;;0.60;;
56045;SDS011;41913;51.030;3.706;2023-02-18T06:50:12;3.88;;;1.15;;
56045;SDS011;41913;51.030;3.706;2023-02-18T06:52:38;0.50;;;0.40;;
56045;SDS011;41913;51.030;3.706;2023-02-18T06:55:04;3.22;;;1.10;;
56045;SDS011;41913;51.030;3.706;2023-02-18T06:57:31;2.70;;;0.85;;
56045;SDS011;41913;51.030;3.706;2023-02-18T06:59:57;2.30;;;0.77;;
56045;SDS011;41913;51.030;3.706;2023-02-18T07:02:23;1.75;;;0.65;;
56045;SDS011;41913;51.030;3.706;2023-02-18T07:04:49;1.98;;;0.85;;
56045;SDS011;41913;51.030;3.706;2023-02-18T07:07:17;1.55;;;0.75;;
56045;SDS011;41913;51.030;3.706;2023-02-18T07:09:43;1.67;;;0.73;;
56045;SDS011;41913;51.030;3.706;2023-02-18T07:12:11;2.58;;;0.80;;
56045;SDS011;41913;51.030;3.706;2023-02-18T07:14:49;1.08;;;0.75;;
56045;SDS011;41913;51.030;3.706;2023-02-18T07:17:16;1.25;;;0.90;;
56045;SDS011;41913;51.030;3.706;2023-02-18T07:19:43;1.25;;;1.13;;
56045;SDS011;41913;51.030;3.706;2023-02-18T07:22:08;2.25;;;0.88;;
56045;SDS011;41913;51.030;3.706;2023-02-18T07:24:34;1.75;;;1.00;;
56045;SDS011;41913;51.030;3.706;2023-02-18T07:27:01;0.88;;;0.80;;
56045;SDS011;41913;51.030;3.706;2023-02-18T07:29:27;1.08;;;0.90;;
56045;SDS011;41913;51.030;3.706;2023-02-18T07:31:53;2.28;;;1.13;;
56045;SDS011;41913;51.030;3.706;2023-02-18T07:34:20;1.80;;;0.70;;
56045;SDS011;41913;51.030;3.706;2023-02-18T07:36:47;1.73;;;0.90;;
56045;SDS011;41913;51.030;3.706;2023-02-18T07:39:12;3.80;;;0.88;;
56045;SDS011;41913;51.030;3.706;2023-02-18T07:41:38;1.83;;;0.75;;
56045;SDS011;41913;51.030;3.706;2023-02-18T07:44:04;4.70;;;0.88;;
56045;SDS011;41913;51.030;3.706;2023-02-18T07:46:30;5.13;;;1.10;;
56045;SDS011;41913;51.030;3.706;2023-02-18T07:48:56;2.20;;;0.60;;
56045;SDS011;41913;51.030;3.706;2023-02-18T07:51:22;1.25;;;1.10;;
56045;SDS011;41913;51.030;3.706;2023-02-18T07:53:48;5.38;;;1.88;;
56045;SDS011;41913;51.030;3.706;2023-02-18T07:56:13;6.03;;;1.90;;
56045;SDS011;41913;51.030;3.706;2023-02-18T07:58:39;6.13;;;2.05;;
56045;SDS011;41913;51.030;3.706;2023-02-18T08:01:08;11.00;;;1.75;;
56045;SDS011;41913;51.030;3.706;2023-02-18T08:03:40;9.88;;;1.67;;
56045;SDS011;41913;51.030;3.706;2023-02-18T08:06:06;10.07;;;1.75;;
56045;SDS011;41913;51.030;3.706;2023-02-18T08:08:32;4.45;;;1.83;;
56045;SDS011;41913;51.030;3.706;2023-02-18T08:10:59;7.63;;;1.77;;
56045;SDS011;41913;51.030;3.706;2023-02-18T08:13:27;4.30;;;1.63;;
56045;SDS011;41913;51.030;3.706;2023-02-18T08:15:54;8.90;;;1.65;;
56045;SDS011;41913;51.030;3.706;2023-02-18T08:18:22;5.30;;;1.73;;
56045;SDS011;41913;51.030;3.706;2023-02-18T08:20:50;5.72;;;1.60;;
56045;SDS011;41913;51.030;3.706;2023-02-18T08:23:17;5.00;;;1.50;;
56045;SDS011;41913;51.030;3.706;2023-02-18T08:25:48;7.65;;;1.30;;
56045;SDS011;41913;51.030;3.706;2023-02-18T08:28:15;4.63;;;1.45;;
56045;SDS011;41913;51.030;3.706;2023-02-18T08:30:46;8.25;;;1.98;;
56045;SDS011;41913;51.030;3.706;2023-02-18T08:33:13;4.28;;;1.17;;
56045;SDS011;41913;51.030;3.706;2023-02-18T08:35:38;3.15;;;1.25;;
56045;SDS011;41913;51.030;3.706;2023-02-18T08:38:06;5.20;;;1.25;;
56045;SDS011;41913;51.030;3.706;2023-02-18T08:40:31;9.30;;;1.23;;
56045;SDS011;41913;51.030;3.706;2023-02-18T08:42:58;9.13;;;1.45;;
56045;SDS011;41913;51.030;3.706;2023-02-18T08:45:25;4.53;;;1.42;;
56045;SDS011;41913;51.030;3.706;2023-02-18T08:47:51;7.53;;;1.02;;
56045;SDS011;41913;51.030;3.706;2023-02-18T08:50:18;4.40;;;1.10;;
56045;SDS011;41913;51.030;3.706;2023-02-18T08:52:46;5.88;;;1.35;;
56045;SDS011;41913;51.030;3.706;2023-02-18T08:55:12;5.43;;;1.00;;
56045;SDS011;41913;51.030;3.706;2023-02-18T08:57:38;2.83;;;1.40;;
56045;SDS011;41913;51.030;3.706;2023-02-18T09:00:04;4.95;;;1.35;;
56045;SDS011;41913;51.030;3.706;2023-02-18T09:02:31;5.22;;;1.40;;
56045;SDS011;41913;51.030;3.706;2023-02-18T09:04:57;3.50;;;0.95;;
56045;SDS011;41913;51.030;3.706;2023-02-18T09:07:24;3.67;;;0.75;;
56045;SDS011;41913;51.030;3.706;2023-02-18T09:09:49;4.35;;;1.48;;
56045;SDS011;41913;51.030;3.706;2023-02-18T09:12:15;3.97;;;1.17;;
56045;SDS011;41913;51.030;3.706;2023-02-18T09:14:42;3.13;;;1.60;;
56045;SDS011;41913;51.030;3.706;2023-02-18T09:17:07;4.43;;;1.30;;
56045;SDS011;41913;51.030;3.706;2023-02-18T09:19:33;5.88;;;1.33;;
56045;SDS011;41913;51.030;3.706;2023-02-18T09:21:58;1.15;;;0.80;;
56045;SDS011;41913;51.030;3.706;2023-02-18T09:24:30;2.78;;;1.30;;
56045;SDS011;41913;51.030;3.706;2023-02-18T09:27:00;3.42;;;1.20;;
56045;SDS011;41913;51.030;3.706;2023-02-18T09:29:27;4.35;;;1.45;;
56045;SDS011;41913;51.030;3.706;2023-02-18T09:31:52;2.70;;;0.95;;
56045;SDS011;41913;51.030;3.706;2023-02-18T09:34:18;2.50;;;1.15;;
56045;SDS011;41913;51.030;3.706;2023-02-18T09:36:44;4.07;;;1.27;;
56045;SDS011;41913;51.030;3.706;2023-02-18T09:39:09;2.65;;;1.55;;
56045;SDS011;41913;51.030;3.706;2023-02-18T09:41:47;2.50;;;0.80;;
56045;SDS011;41913;51.030;3.706;2023-02-18T09:44:22;4.13;;;1.20;;
56045;SDS011;41913;51.030;3.706;2023-02-18T09:49:18;2.95;;;1.00;;
56045;SDS011;41913;51.030;3.706;2023-02-18T09:51:47;2.42;;;0.90;;
56045;SDS011;41913;51.030;3.706;2023-02-18T09:54:14;3.97;;;1.00;;
56045;SDS011;41913;51.030;3.706;2023-02-18T09:56:43;6.43;;;0.80;;
56045;SDS011;41913;51.030;3.706;2023-02-18T09:59:19;4.88;;;1.20;;
56045;SDS011;41913;51.030;3.706;2023-02-18T10:01:48;6.25;;;1.20;;
56045;SDS011;41913;51.030;3.706;2023-02-18T10:06:42;3.33;;;1.15;;
56045;SDS011;41913;51.030;3.706;2023-02-18T10:09:32;1.95;;;0.77;;
56045;SDS011;41913;51.030;3.706;2023-02-18T10:12:02;3.00;;;1.00;;
56045;SDS011;41913;51.030;3.706;2023-02-18T10:14:39;2.58;;;1.02;;
56045;SDS011;41913;51.030;3.706;2023-02-18T10:17:07;2.65;;;0.95;;
56045;SDS011;41913;51.030;3.706;2023-02-18T10:19:39;1.75;;;0.75;;
56045;SDS011;41913;51.030;3.706;2023-02-18T10:22:06;2.05;;;0.95;;
56045;SDS011;41913;51.030;3.706;2023-02-18T10:24:36;3.22;;;0.95;;
56045;SDS011;41913;51.030;3.706;2023-02-18T10:27:08;2.75;;;0.60;;
56045;SDS011;41913;51.030;3.706;2023-02-18T10:29:39;0.70;;;0.70;;
56045;SDS011;41913;51.030;3.706;2023-02-18T10:34:53;0.60;;;0.60;;
56045;SDS011;41913;51.030;3.706;2023-02-18T10:51:02;2.38;;;1.35;;
56045;SDS011;41913;51.030;3.706;2023-02-18T10:53:50;0.80;;;0.80;;
56045;SDS011;41913;51.030;3.706;2023-02-18T10:56:33;2.47;;;0.93;;
56045;SDS011;41913;51.030;3.706;2023-02-18T11:01:39;0.80;;;0.80;;
56045;SDS011;41913;51.030;3.706;2023-02-18T11:04:12;0.95;;;0.82;;
56045;SDS011;41913;51.030;3.706;2023-02-18T11:06:41;2.88;;;1.05;;
56045;SDS011;41913;51.030;3.706;2023-02-18T11:10:17;0.93;;;0.93;;
56045;SDS011;41913;51.030;3.706;2023-02-18T11:12:18;1.48;;;0.50;;
56045;SDS011;41913;51.030;3.706;2023-02-18T11:14:49;2.05;;;1.00;;
56045;SDS011;41913;51.030;3.706;2023-02-18T11:17:35;0.77;;;0.68;;
56045;SDS011;41913;51.030;3.706;2023-02-18T11:22:51;1.23;;;0.57;;
56045;SDS011;41913;51.030;3.706;2023-02-18T11:25:22;0.85;;;0.77;;
56045;SDS011;41913;51.030;3.706;2023-02-18T11:27:58;0.73;;;0.65;;
56045;SDS011;41913;51.030;3.706;2023-02-18T11:30:31;0.80;;;0.52;;
56045;SDS011;41913;51.030;3.706;2023-02-18T11:33:07;0.55;;;0.40;;
56045;SDS011;41913;51.030;3.706;2023-02-18T11:35:39;2.10;;;0.85;;
56045;SDS011;41913;51.030;3.706;2023-02-18T11:38:28;0.98;;;0.70;;
56045;SDS011;41913;51.030;3.706;2023-02-18T11:41:02;0.60;;;0.60;;
56045;SDS011;41913;51.030;3.706;2023-02-18T11:43:33;0.55;;;0.55;;
56045;SDS011;41913;51.030;3.706;2023-02-18T11:48:46;0.50;;;0.40;;
56045;SDS011;41913;51.030;3.706;2023-02-18T11:51:21;0.95;;;0.60;;
56045;SDS011;41913;51.030;3.706;2023-02-18T11:54:09;0.90;;;0.63;;
56045;SDS011;41913;51.030;3.706;2023-02-18T11:57:03;0.40;;;0.40;;
56045;SDS011;41913;51.030;3.706;2023-02-18T11:59:34;0.50;;;0.30;;
56045;SDS011;41913;51.030;3.706;2023-02-18T12:04:44;0.30;;;0.30;;
56045;SDS011;41913;51.030;3.706;2023-02-18T12:07:21;5.05;;;0.73;;
56045;SDS011;41913;51.030;3.706;2023-02-18T12:09:51;0.22;;;0.22;;
56045;SDS011;41913;51.030;3.706;2023-02-18T12:14:49;1.95;;;1.13;;
56045;SDS011;41913;51.030;3.706;2023-02-18T12:42:55;1.92;;;0.70;;
56045;SDS011;41913;51.030;3.706;2023-02-18T12:45:54;0.40;;;0.40;;
56045;SDS011;41913;51.030;3.706;2023-02-18T12:48:48;0.85;;;0.77;;
56045;SDS011;41913;51.030;3.706;2023-02-18T12:54:22;3.78;;;1.00;;
56045;SDS011;41913;51.030;3.706;2023-02-18T13:05:56;3.33;;;1.08;;
56045;SDS011;41913;51.030;3.706;2023-02-18T13:14:27;1.52;;;0.70;;
56045;SDS011;41913;51.030;3.706;2023-02-18T13:16:56;1.15;;;0.75;;
56045;SDS011;41913;51.030;3.706;2023-02-18T13:19:59;1.63;;;1.08;;
56045;SDS011;41913;51.030;3.706;2023-02-18T13:22:23;0.90;;;0.80;;
56045;SDS011;41913;51.030;3.706;2023-02-18T13:24:51;1.25;;;0.85;;
56045;SDS011;41913;51.030;3.706;2023-02-18T13:32:29;4.05;;;1.20;;
56045;SDS011;41913;51.030;3.706;2023-02-18T13:35:19;0.80;;;0.70;;
56045;SDS011;41913;51.030;3.706;2023-02-18T13:40:48;0.90;;;0.57;;
56045;SDS011;41913;51.030;3.706;2023-02-18T13:43:29;0.50;;;0.50;;
56045;SDS011;41913;51.030;3.706;2023-02-18T13:48:41;0.40;;;0.40;;
56045;SDS011;41913;51.030;3.706;2023-02-18T13:51:11;0.73;;;0.50;;
56045;SDS011;41913;51.030;3.706;2023-02-18T13:53:52;1.95;;;0.45;;
56045;SDS011;41913;51.030;3.706;2023-02-18T13:56:29;0.50;;;0.40;;
56045;SDS011;41913;51.030;3.706;2023-02-18T13:59:19;1.27;;;0.50;;
56045;SDS011;41913;51.030;3.706;2023-02-18T14:01:51;0.27;;;0.27;;
56045;SDS011;41913;51.030;3.706;2023-02-18T14:05:13;0.73;;;0.57;;
56045;SDS011;41913;51.030;3.706;2023-02-18T14:09:48;1.73;;;0.60;;
56045;SDS011;41913;51.030;3.706;2023-02-18T14:12:59;0.47;;;0.30;;
56045;SDS011;41913;51.030;3.706;2023-02-18T14:15:47;1.17;;;0.35;;
56045;SDS011;41913;51.030;3.706;2023-02-18T14:22:58;1.85;;;0.40;;
56045;SDS011;41913;51.030;3.706;2023-02-18T14:25:34;0.50;;;0.35;;
56045;SDS011;41913;51.030;3.706;2023-02-18T14:31:25;0.80;;;0.75;;
56045;SDS011;41913;51.030;3.706;2023-02-18T14:34:04;0.20;;;0.20;;
56045;SDS011;41913;51.030;3.706;2023-02-18T14:37:03;0.43;;;0.40;;
56045;SDS011;41913;51.030;3.706;2023-02-18T14:51:23;0.30;;;0.30;;
56045;SDS011;41913;51.030;3.706;2023-02-18T14:53:51;0.40;;;0.30;;
56045;SDS011;41913;51.030;3.706;2023-02-18T14:56:18;0.52;;;0.30;;
56045;SDS011;41913;51.030;3.706;2023-02-18T15:01:22;0.55;;;0.52;;
56045;SDS011;41913;51.030;3.706;2023-02-18T15:03:51;1.08;;;0.90;;
56045;SDS011;41913;51.030;3.706;2023-02-18T15:08:47;0.55;;;0.45;;
56045;SDS011;41913;51.030;3.706;2023-02-18T15:11:13;0.77;;;0.50;;
56045;SDS011;41913;51.030;3.706;2023-02-18T15:13:43;0.30;;;0.28;;
56045;SDS011;41913;51.030;3.706;2023-02-18T15:16:15;0.82;;;0.50;;
56045;SDS011;41913;51.030;3.706;2023-02-18T15:18:55;1.85;;;0.47;;
56045;SDS011;41913;51.030;3.706;2023-02-18T15:24:07;0.50;;;0.50;;
56045;SDS011;41913;51.030;3.706;2023-02-18T15:26:51;0.30;;;0.30;;
56045;SDS011;41913;51.030;3.706;2023-02-18T15:29:22;0.63;;;0.40;;
56045;SDS011;41913;51.030;3.706;2023-02-18T15:31:57;0.47;;;0.47;;
56045;SDS011;41913;51.030;3.706;2023-02-18T15:36:58;0.30;;;0.20;;
56045;SDS011;41913;51.030;3.706;2023-02-18T15:39:25;0.30;;;0.30;;
56045;SDS011;41913;51.030;3.706;2023-02-18T15:41:58;0.35;;;0.32;;
56045;SDS011;41913;51.030;3.706;2023-02-18T15:44:30;0.22;;;0.22;;
56045;SDS011;41913;51.030;3.706;2023-02-18T15:47:01;0.50;;;0.50;;
56045;SDS011;41913;51.030;3.706;2023-02-18T15:49:33;0.20;;;0.20;;
56045;SDS011;41913;51.030;3.706;2023-02-18T15:52:02;0.65;;;0.65;;
56045;SDS011;41913;51.030;3.706;2023-02-18T15:54:29;1.63;;;0.20;;
56045;SDS011;41913;51.030;3.706;2023-02-18T15:56:59;0.73;;;0.25;;
56045;SDS011;41913;51.030;3.706;2023-02-18T15:59:27;0.32;;;0.30;;
56045;SDS011;41913;51.030;3.706;2023-02-18T16:02:01;0.47;;;0.47;;
56045;SDS011;41913;51.030;3.706;2023-02-18T16:04:37;0.35;;;0.35;;
56045;SDS011;41913;51.030;3.706;2023-02-18T16:07:18;0.28;;;0.28;;
56045;SDS011;41913;51.030;3.706;2023-02-18T16:12:43;0.73;;;0.30;;
56045;SDS011;41913;51.030;3.706;2023-02-18T16:15:15;0.40;;;0.40;;
56045;SDS011;41913;51.030;3.706;2023-02-18T16:17:53;0.60;;;0.50;;
56045;SDS011;41913;51.030;3.706;2023-02-18T16:23:03;0.30;;;0.30;;
56045;SDS011;41913;51.030;3.706;2023-02-18T16:25:42;0.30;;;0.30;;
56045;SDS011;41913;51.030;3.706;2023-02-18T16:30:40;0.80;;;0.63;;
56045;SDS011;41913;51.030;3.706;2023-02-18T16:33:07;0.40;;;0.40;;
56045;SDS011;41913;51.030;3.706;2023-02-18T16:35:33;0.30;;;0.30;;
56045;SDS011;41913;51.030;3.706;2023-02-18T16:37:59;2.22;;;0.43;;
56045;SDS011;41913;51.030;3.706;2023-02-18T16:42:51;0.43;;;0.43;;
56045;SDS011;41913;51.030;3.706;2023-02-18T16:45:18;0.98;;;0.28;;
56045;SDS011;41913;51.030;3.706;2023-02-18T16:47:45;1.55;;;0.20;;
56045;SDS011;41913;51.030;3.706;2023-02-18T16:50:17;0.57;;;0.30;;
56045;SDS011;41913;51.030;3.706;2023-02-18T16:52:45;0.40;;;0.40;;
56045;SDS011;41913;51.030;3.706;2023-02-18T16:55:21;0.90;;;0.40;;
56045;SDS011;41913;51.030;3.706;2023-02-18T16:57:49;0.47;;;0.47;;
56045;SDS011;41913;51.030;3.706;2023-02-18T17:00:16;0.40;;;0.40;;
56045;SDS011;41913;51.030;3.706;2023-02-18T17:02:43;0.50;;;0.25;;
56045;SDS011;41913;51.030;3.706;2023-02-18T17:05:16;0.30;;;0.30;;
56045;SDS011;41913;51.030;3.706;2023-02-18T17:07:50;0.30;;;0.30;;
56045;SDS011;41913;51.030;3.706;2023-02-18T17:10:16;1.23;;;0.40;;
56045;SDS011;41913;51.030;3.706;2023-02-18T17:12:42;0.40;;;0.40;;
56045;SDS011;41913;51.030;3.706;2023-02-18T17:15:26;0.43;;;0.38;;
56045;SDS011;41913;51.030;3.706;2023-02-18T17:17:52;0.50;;;0.50;;
56045;SDS011;41913;51.030;3.706;2023-02-18T17:20:18;0.40;;;0.20;;
56045;SDS011;41913;51.030;3.706;2023-02-18T17:22:45;0.30;;;0.30;;
56045;SDS011;41913;51.030;3.706;2023-02-18T17:25:13;0.40;;;0.40;;
56045;SDS011;41913;51.030;3.706;2023-02-18T17:27:42;0.52;;;0.40;;
56045;SDS011;41913;51.030;3.706;2023-02-18T17:30:08;0.43;;;0.43;;
56045;SDS011;41913;51.030;3.706;2023-02-18T17:32:34;0.40;;;0.40;;
56045;SDS011;41913;51.030;3.706;2023-02-18T17:35:00;1.98;;;0.73;;
56045;SDS011;41913;51.030;3.706;2023-02-18T17:37:27;0.68;;;0.68;;
56045;SDS011;41913;51.030;3.706;2023-02-18T17:39:52;0.73;;;0.43;;
56045;SDS011;41913;51.030;3.706;2023-02-18T17:42:18;0.40;;;0.40;;
56045;SDS011;41913;51.030;3.706;2023-02-18T17:44:45;0.60;;;0.60;;
56045;SDS011;41913;51.030;3.706;2023-02-18T17:47:11;0.55;;;0.55;;
56045;SDS011;41913;51.030;3.706;2023-02-18T17:49:36;0.40;;;0.40;;